Time,TemperatureF,DewpointF,PressureIn,WindDirection,WindDirectionDegrees,WindSpeedMPH,WindSpeedGustMPH,Humidity,HourlyPrecipIn,Conditions,Clouds,dailyrainin,SoftwareType,DateUTC
2013-07-17 00:03:00,75.7,72.0,30.19,NNE,24,0.0,0.0,88,0.00,,,0.00,weatherlink.com 1.10,2013-07-17 04:03:00,
2013-07-17 00:18:00,75.5,71.0,30.18,ENE,64,0.0,1.0,87,0.00,,,0.00,weatherlink.com 1.10,2013-07-17 04:18:00,
2013-07-17 00:33:00,75.5,71.0,30.18,ENE,57,0.0,1.0,87,0.00,,,0.00,weatherlink.com 1.10,2013-07-17 04:33:00,
2013-07-17 00:48:00,75.0,71.0,30.18,ENE,57,0.0,1.0,88,0.00,,,0.00,weatherlink.com 1.10,2013-07-17 04:48:00,
2013-07-17 01:03:00,74.7,71.0,30.18,ENE,57,0.0,1.0,88,0.00,,,0.00,weatherlink.com 1.10,2013-07-17 05:03:00,
2013-07-17 01:18:00,74.8,71.0,30.18,ENE,57,0.0,1.0,88,0.00,,,0.00,weatherlink.com 1.10,2013-07-17 05:18:00,
2013-07-17 01:33:00,74.6,71.0,30.18,NE,55,0.0,2.0,88,0.00,,,0.00,weatherlink.com 1.10,2013-07-17 05:33:00,
2013-07-17 01:48:00,74.5,71.0,30.18,NE,53,0.0,1.0,89,0.00,,,0.00,weatherlink.com 1.10,2013-07-17 05:48:00,
2013-07-17 02:03:00,74.6,71.0,30.19,North,10,0.0,0.0,88,0.00,,,0.00,weatherlink.com 1.10,2013-07-17 06:03:00,
2013-07-17 02:18:00,74.4,71.0,30.18,North,10,0.0,0.0,88,0.00,,,0.00,weatherlink.com 1.10,2013-07-17 06:18:00,
2013-07-17 02:33:00,74.3,71.0,30.18,North,10,0.0,0.0,88,0.00,,,0.00,weatherlink.com 1.10,2013-07-17 06:33:00,
2013-07-17 02:48:00,74.2,71.0,30.19,North,10,0.0,0.0,89,0.00,,,0.00,weatherlink.com 1.10,2013-07-17 06:48:00,
2013-07-17 03:03:00,74.0,71.0,30.18,North,10,0.0,0.0,90,0.00,,,0.00,weatherlink.com 1.10,2013-07-17 07:03:00,
2013-07-17 03:18:00,73.6,71.0,30.18,North,10,0.0,0.0,90,0.00,,,0.00,weatherlink.com 1.10,2013-07-17 07:18:00,
2013-07-17 03:33:00,73.3,70.0,30.18,NW,325,0.0,1.0,90,0.00,,,0.00,weatherlink.com 1.10,2013-07-17 07:33:00,
2013-07-17 03:48:00,73.1,70.0,30.18,NW,325,0.0,0.0,90,0.00,,,0.00,weatherlink.com 1.10,2013-07-17 07:48:00,
2013-07-17 04:03:00,73.0,70.0,30.18,NW,325,0.0,0.0,91,0.00,,,0.00,weatherlink.com 1.10,2013-07-17 08:03:00,
2013-07-17 04:18:00,72.8,70.0,30.18,NW,325,0.0,0.0,91,0.00,,,0.00,weatherlink.com 1.10,2013-07-17 08:18:00,
2013-07-17 04:33:00,72.7,70.0,30.18,NNE,28,0.0,2.0,91,0.00,,,0.00,weatherlink.com 1.10,2013-07-17 08:33:00,
2013-07-17 04:48:00,72.6,70.0,30.18,NNE,28,0.0,0.0,91,0.00,,,0.00,weatherlink.com 1.10,2013-07-17 08:48:00,
2013-07-17 05:03:00,72.3,70.0,30.18,NNE,28,0.0,0.0,92,0.00,,,0.00,weatherlink.com 1.10,2013-07-17 09:03:00,
2013-07-17 05:18:00,72.2,70.0,30.19,NNE,28,0.0,0.0,92,0.00,,,0.00,weatherlink.com 1.10,2013-07-17 09:18:00,
2013-07-17 05:33:00,72.3,70.0,30.19,NNE,26,0.0,0.0,92,0.00,,,0.00,weatherlink.com 1.10,2013-07-17 09:33:00,
2013-07-17 05:48:00,72.2,70.0,30.19,NNE,26,0.0,0.0,91,0.00,,,0.00,weatherlink.com 1.10,2013-07-17 09:48:00,
2013-07-17 06:03:00,72.0,70.0,30.19,NNE,26,0.0,1.0,92,0.00,,,0.00,weatherlink.com 1.10,2013-07-17 10:03:00,
2013-07-17 06:18:00,71.8,69.0,30.19,NNE,26,0.0,0.0,92,0.00,,,0.00,weatherlink.com 1.10,2013-07-17 10:18:00,
2013-07-17 06:33:00,71.6,70.0,30.20,NNE,26,0.0,0.0,93,0.00,,,0.00,weatherlink.com 1.10,2013-07-17 10:33:00,
2013-07-17 06:48:00,71.6,70.0,30.20,NNE,26,0.0,0.0,93,0.00,,,0.00,weatherlink.com 1.10,2013-07-17 10:48:00,
2013-07-17 07:03:00,71.7,70.0,30.20,NNE,26,0.0,0.0,93,0.00,,,0.00,weatherlink.com 1.10,2013-07-17 11:03:00,
2013-07-17 07:18:00,72.2,70.0,30.20,NNE,26,0.0,0.0,93,0.00,,,0.00,weatherlink.com 1.10,2013-07-17 11:18:00,
2013-07-17 07:33:00,72.8,71.0,30.20,NNE,26,0.0,1.0,93,0.00,,,0.00,weatherlink.com 1.10,2013-07-17 11:33:00,
2013-07-17 07:48:00,73.5,71.0,30.21,NNE,26,0.0,1.0,92,0.00,,,0.00,weatherlink.com 1.10,2013-07-17 11:48:00,
2013-07-17 08:03:00,74.8,71.0,30.21,NNE,26,0.0,1.0,89,0.00,,,0.00,weatherlink.com 1.10,2013-07-17 12:03:00,
2013-07-17 08:18:00,76.6,72.0,30.21,South,175,0.0,1.0,86,0.00,,,0.00,weatherlink.com 1.10,2013-07-17 12:18:00,
2013-07-17 08:34:00,78.9,72.0,30.21,NW,304,3.0,3.0,80,0.00,,,0.00,weatherlink.com 1.10,2013-07-17 12:34:00,
2013-07-17 08:49:00,80.7,73.0,30.21,NNW,328,0.0,2.0,78,0.00,,,0.00,weatherlink.com 1.10,2013-07-17 12:49:00,
2013-07-17 09:04:00,82.6,74.0,30.20,NW,323,2.0,3.0,74,0.00,,,0.00,weatherlink.com 1.10,2013-07-17 13:04:00,
2013-07-17 09:19:00,83.8,74.0,30.20,West,280,0.0,3.0,73,0.00,,,0.00,weatherlink.com 1.10,2013-07-17 13:19:00,
2013-07-17 09:34:00,84.7,75.0,30.21,NW,317,0.0,3.0,72,0.00,,,0.00,weatherlink.com 1.10,2013-07-17 13:34:00,
2013-07-17 09:49:00,86.1,74.0,30.20,NE,39,3.0,5.0,68,0.00,,,0.00,weatherlink.com 1.10,2013-07-17 13:49:00,
2013-07-17 10:05:00,87.4,75.0,30.21,SE,136,0.0,5.0,67,0.00,,,0.00,weatherlink.com 1.10,2013-07-17 14:05:00,
2013-07-17 10:19:00,88.5,75.0,30.21,NW,317,2.0,3.0,64,0.00,,,0.00,weatherlink.com 1.10,2013-07-17 14:19:00,
2013-07-17 10:34:00,89.8,75.0,30.21,ESE,103,4.0,5.0,61,0.00,,,0.00,weatherlink.com 1.10,2013-07-17 14:34:00,
2013-07-17 10:49:00,88.9,74.0,30.21,ENE,62,1.0,6.0,61,0.00,,,0.00,weatherlink.com 1.10,2013-07-17 14:49:00,
2013-07-17 11:04:00,89.1,74.0,30.21,NW,324,0.0,3.0,62,0.00,,,0.00,weatherlink.com 1.10,2013-07-17 15:04:00,
2013-07-17 11:19:00,90.0,74.0,30.20,SSE,162,2.0,4.0,60,0.00,,,0.00,weatherlink.com 1.10,2013-07-17 15:19:00,
2013-07-17 11:34:00,92.4,77.0,30.20,North,355,0.0,6.0,60,0.00,,,0.00,weatherlink.com 1.10,2013-07-17 15:34:00,
2013-07-17 11:49:00,93.5,76.0,30.20,NE,53,1.0,4.0,57,0.00,,,0.00,weatherlink.com 1.10,2013-07-17 15:49:00,
2013-07-17 12:04:00,93.5,75.0,30.20,NNE,24,4.0,4.0,56,0.00,,,0.00,weatherlink.com 1.10,2013-07-17 16:04:00,
2013-07-17 12:19:00,94.2,75.0,30.20,NE,43,0.0,4.0,54,0.00,,,0.00,weatherlink.com 1.10,2013-07-17 16:19:00,
2013-07-17 12:34:00,95.5,75.0,30.19,West,267,0.0,3.0,51,0.00,,,0.00,weatherlink.com 1.10,2013-07-17 16:34:00,
2013-07-17 12:49:00,95.0,76.0,30.19,NW,304,2.0,5.0,54,0.00,,,0.00,weatherlink.com 1.10,2013-07-17 16:49:00,
2013-07-17 13:04:00,95.0,75.0,30.18,SE,141,0.0,4.0,52,0.00,,,0.00,weatherlink.com 1.10,2013-07-17 17:04:00,
2013-07-17 13:19:00,95.0,76.0,30.18,ENE,76,2.0,3.0,54,0.00,,,0.00,weatherlink.com 1.10,2013-07-17 17:19:00,
2013-07-17 13:34:00,93.8,74.0,30.18,WSW,244,2.0,5.0,53,0.00,,,0.00,weatherlink.com 1.10,2013-07-17 17:34:00,
2013-07-17 13:49:00,95.3,75.0,30.17,NNW,329,1.0,5.0,52,0.00,,,0.00,weatherlink.com 1.10,2013-07-17 17:49:00,
2013-07-17 14:05:00,96.4,75.0,30.16,SW,226,0.0,4.0,51,0.00,,,0.00,weatherlink.com 1.10,2013-07-17 18:05:00,
2013-07-17 14:20:00,96.9,73.0,30.14,ENE,57,1.0,6.0,46,0.00,,,0.00,weatherlink.com 1.10,2013-07-17 18:20:00,
2013-07-17 14:35:00,96.7,75.0,30.14,East,86,1.0,5.0,49,0.00,,,0.00,weatherlink.com 1.10,2013-07-17 18:35:00,
2013-07-17 14:50:00,96.7,75.0,30.14,SE,141,0.0,6.0,49,0.00,,,0.00,weatherlink.com 1.10,2013-07-17 18:50:00,
2013-07-17 15:05:00,96.2,76.0,30.14,ENE,67,0.0,4.0,53,0.00,,,0.00,weatherlink.com 1.10,2013-07-17 19:05:00,
2013-07-17 15:20:00,93.7,76.0,30.14,ESE,103,0.0,2.0,56,0.00,,,0.00,weatherlink.com 1.10,2013-07-17 19:20:00,
2013-07-17 15:35:00,93.1,77.0,30.13,ESE,108,0.0,3.0,60,0.00,,,0.00,weatherlink.com 1.10,2013-07-17 19:35:00,
2013-07-17 15:50:00,91.5,78.0,30.13,NW,308,0.0,1.0,64,0.00,,,0.00,weatherlink.com 1.10,2013-07-17 19:50:00,
2013-07-17 16:05:00,89.6,78.0,30.12,SW,217,0.0,1.0,68,0.00,,,0.00,weatherlink.com 1.10,2013-07-17 20:05:00,
2013-07-17 16:20:00,92.2,74.0,30.11,NNE,26,7.0,7.0,56,0.00,,,0.00,weatherlink.com 1.10,2013-07-17 20:20:00,
2013-07-17 16:35:00,92.9,76.0,30.12,NE,50,0.0,1.0,59,0.00,,,0.00,weatherlink.com 1.10,2013-07-17 20:35:00,
2013-07-17 16:50:00,90.2,74.0,30.11,NE,38,2.0,7.0,59,0.00,,,0.00,weatherlink.com 1.10,2013-07-17 20:50:00,
2013-07-17 17:05:00,88.9,74.0,30.11,NNW,332,0.0,5.0,61,0.00,,,0.00,weatherlink.com 1.10,2013-07-17 21:05:00,